sensor_id;sensor_type;location;lat;lon;timestamp;pressure;altitude;pressure_sealevel;temperature;humidity
4022;BME280;2025;48.260;16.432;2024-01-30T00:00:29;101761.66;;;0.96;88.54
4022;BME280;2025;48.260;16.432;2024-01-30T00:02:56;101753.88;;;0.96;88.24
4022;BME280;2025;48.260;16.432;2024-01-30T00:05:24;101753.00;;;0.95;88.24
4022;BME280;2025;48.260;16.432;2024-01-30T00:07:51;101748.69;;;0.96;88.21
4022;BME280;2025;48.260;16.432;2024-01-30T00:10:18;101740.03;;;0.95;88.13
4022;BME280;2025;48.260;16.432;2024-01-30T00:12:46;101746.13;;;0.94;88.37
4022;BME280;2025;48.260;16.432;2024-01-30T00:15:13;101750.75;;;0.86;88.61
4022;BME280;2025;48.260;16.432;2024-01-30T00:17:40;101745.53;;;0.88;88.55
4022;BME280;2025;48.260;16.432;2024-01-30T00:20:08;101753.97;;;0.93;88.22
4022;BME280;2025;48.260;16.432;2024-01-30T00:22:37;101755.69;;;0.94;88.24
4022;BME280;2025;48.260;16.432;2024-01-30T00:25:04;101752.03;;;0.98;87.90
4022;BME280;2025;48.260;16.432;2024-01-30T00:27:31;101751.50;;;0.90;88.17
4022;BME280;2025;48.260;16.432;2024-01-30T00:29:58;101746.28;;;0.91;88.08
4022;BME280;2025;48.260;16.432;2024-01-30T00:32:25;101753.19;;;0.91;88.24
4022;BME280;2025;48.260;16.432;2024-01-30T00:34:52;101750.72;;;0.88;88.21
4022;BME280;2025;48.260;16.432;2024-01-30T00:37:19;101755.78;;;0.91;88.05
4022;BME280;2025;48.260;16.432;2024-01-30T00:39:47;101755.28;;;0.81;88.60
4022;BME280;2025;48.260;16.432;2024-01-30T00:42:14;101761.59;;;0.74;88.84
4022;BME280;2025;48.260;16.432;2024-01-30T00:44:42;101764.16;;;0.75;89.15
4022;BME280;2025;48.260;16.432;2024-01-30T00:47:09;101757.25;;;0.74;89.19
4022;BME280;2025;48.260;16.432;2024-01-30T00:49:36;101757.88;;;0.81;88.95
4022;BME280;2025;48.260;16.432;2024-01-30T00:52:03;101754.44;;;0.80;89.20
4022;BME280;2025;48.260;16.432;2024-01-30T00:54:31;101757.03;;;0.80;89.05
4022;BME280;2025;48.260;16.432;2024-01-30T00:56:59;101753.69;;;0.77;89.39
4022;BME280;2025;48.260;16.432;2024-01-30T00:59:26;101762.06;;;0.85;89.06
4022;BME280;2025;48.260;16.432;2024-01-30T01:01:53;101748.50;;;0.77;89.29
4022;BME280;2025;48.260;16.432;2024-01-30T01:04:20;101742.78;;;0.69;89.80
4022;BME280;2025;48.260;16.432;2024-01-30T01:06:48;101740.50;;;0.83;89.65
4022;BME280;2025;48.260;16.432;2024-01-30T01:09:14;101741.59;;;0.77;89.62
4022;BME280;2025;48.260;16.432;2024-01-30T01:11:42;101742.66;;;0.72;89.68
4022;BME280;2025;48.260;16.432;2024-01-30T01:14:10;101746.00;;;0.75;89.63
4022;BME280;2025;48.260;16.432;2024-01-30T01:16:37;101738.94;;;0.79;89.45
4022;BME280;2025;48.260;16.432;2024-01-30T01:19:04;101735.84;;;0.69;90.20
4022;BME280;2025;48.260;16.432;2024-01-30T01:21:31;101731.66;;;0.65;90.10
4022;BME280;2025;48.260;16.432;2024-01-30T01:23:58;101741.03;;;0.69;89.95
4022;BME280;2025;48.260;16.432;2024-01-30T01:26:25;101734.22;;;0.67;90.23
4022;BME280;2025;48.260;16.432;2024-01-30T01:28:52;101734.09;;;0.70;90.25
4022;BME280;2025;48.260;16.432;2024-01-30T01:31:21;101731.28;;;0.52;90.91
4022;BME280;2025;48.260;16.432;2024-01-30T01:33:50;101737.09;;;0.59;90.75
4022;BME280;2025;48.260;16.432;2024-01-30T01:36:17;101733.13;;;0.49;90.90
4022;BME280;2025;48.260;16.432;2024-01-30T01:38:44;101728.19;;;0.66;90.61
4022;BME280;2025;48.260;16.432;2024-01-30T01:41:11;101716.22;;;0.62;90.88
4022;BME280;2025;48.260;16.432;2024-01-30T01:43:38;101719.66;;;0.62;90.44
4022;BME280;2025;48.260;16.432;2024-01-30T01:46:06;101718.03;;;0.60;90.87
4022;BME280;2025;48.260;16.432;2024-01-30T01:48:35;101713.84;;;0.56;90.71
4022;BME280;2025;48.260;16.432;2024-01-30T01:51:05;101725.31;;;0.50;91.13
4022;BME280;2025;48.260;16.432;2024-01-30T01:53:33;101714.38;;;0.42;91.64
4022;BME280;2025;48.260;16.432;2024-01-30T01:56:00;101715.09;;;0.46;91.32
4022;BME280;2025;48.260;16.432;2024-01-30T01:58:27;101717.75;;;0.44;91.66
4022;BME280;2025;48.260;16.432;2024-01-30T02:00:56;101715.91;;;0.48;91.34
4022;BME280;2025;48.260;16.432;2024-01-30T02:03:24;101718.88;;;0.37;92.11
4022;BME280;2025;48.260;16.432;2024-01-30T02:05:52;101723.22;;;0.36;91.99
4022;BME280;2025;48.260;16.432;2024-01-30T02:08:20;101723.88;;;0.41;91.79
4022;BME280;2025;48.260;16.432;2024-01-30T02:10:47;101722.25;;;0.39;91.67
4022;BME280;2025;48.260;16.432;2024-01-30T02:13:14;101720.47;;;0.41;91.97
4022;BME280;2025;48.260;16.432;2024-01-30T02:15:41;101723.84;;;0.43;91.59
4022;BME280;2025;48.260;16.432;2024-01-30T02:18:08;101717.06;;;0.39;91.58
4022;BME280;2025;48.260;16.432;2024-01-30T02:20:37;101716.06;;;0.43;91.32
4022;BME280;2025;48.260;16.432;2024-01-30T02:23:07;101709.28;;;0.39;91.18
4022;BME280;2025;48.260;16.432;2024-01-30T02:25:38;101705.88;;;0.38;91.03
4022;BME280;2025;48.260;16.432;2024-01-30T02:28:09;101702.31;;;0.41;91.12
4022;BME280;2025;48.260;16.432;2024-01-30T02:30:36;101709.25;;;0.40;90.92
4022;BME280;2025;48.260;16.432;2024-01-30T02:33:04;101698.94;;;0.39;91.33
4022;BME280;2025;48.260;16.432;2024-01-30T02:35:31;101705.03;;;0.38;91.10
4022;BME280;2025;48.260;16.432;2024-01-30T02:37:59;101711.09;;;0.37;90.88
4022;BME280;2025;48.260;16.432;2024-01-30T02:40:27;101710.31;;;0.35;91.04
4022;BME280;2025;48.260;16.432;2024-01-30T02:42:54;101703.28;;;0.38;90.75
4022;BME280;2025;48.260;16.432;2024-01-30T02:45:21;101710.63;;;0.26;91.11
4022;BME280;2025;48.260;16.432;2024-01-30T02:47:48;101708.66;;;0.32;91.16
4022;BME280;2025;48.260;16.432;2024-01-30T02:50:15;101714.81;;;0.30;91.04
4022;BME280;2025;48.260;16.432;2024-01-30T02:52:43;101716.09;;;0.18;90.94
4022;BME280;2025;48.260;16.432;2024-01-30T02:55:10;101713.41;;;0.21;91.51
4022;BME280;2025;48.260;16.432;2024-01-30T02:57:39;101717.19;;;0.12;91.44
4022;BME280;2025;48.260;16.432;2024-01-30T03:00:07;101715.38;;;0.14;91.38
4022;BME280;2025;48.260;16.432;2024-01-30T03:02:35;101718.59;;;-0.04;92.22
4022;BME280;2025;48.260;16.432;2024-01-30T03:05:02;101709.44;;;0.11;91.64
4022;BME280;2025;48.260;16.432;2024-01-30T03:07:30;101712.50;;;0.22;91.06
4022;BME280;2025;48.260;16.432;2024-01-30T03:09:57;101705.44;;;0.26;90.96
4022;BME280;2025;48.260;16.432;2024-01-30T03:12:24;101700.72;;;0.13;91.63
4022;BME280;2025;48.260;16.432;2024-01-30T03:14:52;101692.22;;;0.10;91.80
4022;BME280;2025;48.260;16.432;2024-01-30T03:17:19;101701.56;;;0.14;91.33
4022;BME280;2025;48.260;16.432;2024-01-30T03:19:46;101694.72;;;0.11;91.31
4022;BME280;2025;48.260;16.432;2024-01-30T03:22:13;101698.34;;;0.07;91.69
4022;BME280;2025;48.260;16.432;2024-01-30T03:24:40;101695.84;;;0.04;91.25
4022;BME280;2025;48.260;16.432;2024-01-30T03:27:08;101692.44;;;0.04;91.71
4022;BME280;2025;48.260;16.432;2024-01-30T03:29:35;101697.59;;;0.04;91.82
4022;BME280;2025;48.260;16.432;2024-01-30T03:32:04;101691.16;;;-0.10;92.45
4022;BME280;2025;48.260;16.432;2024-01-30T03:34:31;101694.06;;;-0.19;92.42
4022;BME280;2025;48.260;16.432;2024-01-30T03:36:58;101692.75;;;-0.06;92.36
4022;BME280;2025;48.260;16.432;2024-01-30T03:39:25;101693.69;;;-0.08;92.27
4022;BME280;2025;48.260;16.432;2024-01-30T03:41:52;101699.34;;;-0.22;92.80
4022;BME280;2025;48.260;16.432;2024-01-30T03:44:19;101691.63;;;-0.24;92.98
4022;BME280;2025;48.260;16.432;2024-01-30T03:46:46;101687.53;;;-0.29;92.64
4022;BME280;2025;48.260;16.432;2024-01-30T03:49:15;101688.72;;;-0.14;92.57
4022;BME280;2025;48.260;16.432;2024-01-30T03:51:42;101691.06;;;-0.32;92.81
4022;BME280;2025;48.260;16.432;2024-01-30T03:54:09;101694.34;;;-0.27;93.00
4022;BME280;2025;48.260;16.432;2024-01-30T03:56:36;101691.75;;;-0.27;92.85
4022;BME280;2025;48.260;16.432;2024-01-30T03:59:03;101697.75;;;-0.26;92.89
4022;BME280;2025;48.260;16.432;2024-01-30T04:01:30;101698.81;;;-0.32;93.03
4022;BME280;2025;48.260;16.432;2024-01-30T04:03:57;101704.81;;;-0.30;93.57
4022;BME280;2025;48.260;16.432;2024-01-30T04:06:26;101701.53;;;-0.35;93.28
4022;BME280;2025;48.260;16.432;2024-01-30T04:08:53;101698.16;;;-0.37;93.68
4022;BME280;2025;48.260;16.432;2024-01-30T04:11:20;101699.09;;;-0.39;94.02
4022;BME280;2025;48.260;16.432;2024-01-30T04:13:47;101692.06;;;-0.36;93.78
4022;BME280;2025;48.260;16.432;2024-01-30T04:16:20;101688.09;;;-0.46;94.17
4022;BME280;2025;48.260;16.432;2024-01-30T04:18:47;101689.44;;;-0.34;93.42
4022;BME280;2025;48.260;16.432;2024-01-30T04:21:14;101692.69;;;-0.29;93.25
4022;BME280;2025;48.260;16.432;2024-01-30T04:23:43;101695.13;;;-0.25;93.28
4022;BME280;2025;48.260;16.432;2024-01-30T04:26:10;101692.75;;;-0.31;93.58
4022;BME280;2025;48.260;16.432;2024-01-30T04:28:37;101693.38;;;-0.24;93.13
4022;BME280;2025;48.260;16.432;2024-01-30T04:31:04;101688.63;;;-0.36;93.27
4022;BME280;2025;48.260;16.432;2024-01-30T04:33:31;101686.75;;;-0.33;93.33
4022;BME280;2025;48.260;16.432;2024-01-30T04:35:58;101693.91;;;-0.39;93.62
4022;BME280;2025;48.260;16.432;2024-01-30T04:38:25;101693.13;;;-0.41;94.19
4022;BME280;2025;48.260;16.432;2024-01-30T04:40:53;101697.19;;;-0.34;93.71
4022;BME280;2025;48.260;16.432;2024-01-30T04:43:20;101700.19;;;-0.47;94.10
4022;BME280;2025;48.260;16.432;2024-01-30T04:45:49;101693.00;;;-0.38;94.17
4022;BME280;2025;48.260;16.432;2024-01-30T04:48:16;101694.59;;;-0.34;93.89
4022;BME280;2025;48.260;16.432;2024-01-30T04:50:43;101687.28;;;-0.48;93.96
4022;BME280;2025;48.260;16.432;2024-01-30T04:53:10;101695.63;;;-0.40;94.12
4022;BME280;2025;48.260;16.432;2024-01-30T04:55:37;101701.72;;;-0.41;93.95
4022;BME280;2025;48.260;16.432;2024-01-30T04:58:05;101696.75;;;-0.47;94.18
4022;BME280;2025;48.260;16.432;2024-01-30T05:00:32;101700.38;;;-0.53;94.19
4022;BME280;2025;48.260;16.432;2024-01-30T05:02:59;101693.47;;;-0.52;94.34
4022;BME280;2025;48.260;16.432;2024-01-30T05:05:26;101688.03;;;-0.45;94.26
4022;BME280;2025;48.260;16.432;2024-01-30T05:07:53;101690.72;;;-0.48;94.24
4022;BME280;2025;48.260;16.432;2024-01-30T05:10:20;101688.31;;;-0.54;94.34
4022;BME280;2025;48.260;16.432;2024-01-30T05:12:47;101696.81;;;-0.49;94.44
4022;BME280;2025;48.260;16.432;2024-01-30T05:15:15;101697.94;;;-0.57;94.71
4022;BME280;2025;48.260;16.432;2024-01-30T05:17:42;101699.94;;;-0.66;95.34
4022;BME280;2025;48.260;16.432;2024-01-30T05:20:11;101697.16;;;-0.59;94.81
4022;BME280;2025;48.260;16.432;2024-01-30T05:22:38;101701.81;;;-0.71;95.54
4022;BME280;2025;48.260;16.432;2024-01-30T05:25:10;101702.03;;;-0.77;95.44
4022;BME280;2025;48.260;16.432;2024-01-30T05:27:37;101697.94;;;-0.84;96.01
4022;BME280;2025;48.260;16.432;2024-01-30T05:30:06;101705.75;;;-0.86;96.16
4022;BME280;2025;48.260;16.432;2024-01-30T05:32:34;101710.72;;;-0.79;95.83
4022;BME280;2025;48.260;16.432;2024-01-30T05:35:02;101707.94;;;-0.73;96.11
4022;BME280;2025;48.260;16.432;2024-01-30T05:37:29;101711.88;;;-0.88;95.82
4022;BME280;2025;48.260;16.432;2024-01-30T05:39:56;101711.59;;;-0.79;96.12
4022;BME280;2025;48.260;16.432;2024-01-30T05:42:23;101707.06;;;-0.72;95.81
4022;BME280;2025;48.260;16.432;2024-01-30T05:44:50;101709.81;;;-0.77;95.53
4022;BME280;2025;48.260;16.432;2024-01-30T05:47:17;101709.06;;;-0.82;95.50
4022;BME280;2025;48.260;16.432;2024-01-30T05:49:46;101698.78;;;-0.83;95.66
4022;BME280;2025;48.260;16.432;2024-01-30T05:52:13;101704.97;;;-0.88;95.70
4022;BME280;2025;48.260;16.432;2024-01-30T05:54:41;101709.88;;;-1.08;96.47
4022;BME280;2025;48.260;16.432;2024-01-30T05:57:08;101712.09;;;-0.96;96.41
4022;BME280;2025;48.260;16.432;2024-01-30T05:59:35;101709.84;;;-1.07;96.15
4022;BME280;2025;48.260;16.432;2024-01-30T06:02:03;101721.06;;;-1.08;96.79
4022;BME280;2025;48.260;16.432;2024-01-30T06:04:30;101718.75;;;-1.17;96.84
4022;BME280;2025;48.260;16.432;2024-01-30T06:06:58;101711.75;;;-1.12;96.73
4022;BME280;2025;48.260;16.432;2024-01-30T06:09:27;101722.28;;;-1.19;97.03
4022;BME280;2025;48.260;16.432;2024-01-30T06:11:55;101718.56;;;-1.09;96.82
4022;BME280;2025;48.260;16.432;2024-01-30T06:14:22;101725.75;;;-1.19;96.73
4022;BME280;2025;48.260;16.432;2024-01-30T06:16:49;101719.91;;;-1.25;97.08
4022;BME280;2025;48.260;16.432;2024-01-30T06:19:16;101714.41;;;-1.15;96.98
4022;BME280;2025;48.260;16.432;2024-01-30T06:21:44;101723.03;;;-1.14;96.77
4022;BME280;2025;48.260;16.432;2024-01-30T06:24:12;101726.25;;;-1.08;96.61
4022;BME280;2025;48.260;16.432;2024-01-30T06:26:39;101722.72;;;-1.05;96.25
4022;BME280;2025;48.260;16.432;2024-01-30T06:29:06;101733.94;;;-1.04;96.17
4022;BME280;2025;48.260;16.432;2024-01-30T06:31:39;101734.91;;;-1.09;96.81
4022;BME280;2025;48.260;16.432;2024-01-30T06:34:06;101728.69;;;-1.03;96.37
4022;BME280;2025;48.260;16.432;2024-01-30T06:36:33;101730.81;;;-1.16;96.09
4022;BME280;2025;48.260;16.432;2024-01-30T06:39:01;101734.81;;;-1.06;96.12
4022;BME280;2025;48.260;16.432;2024-01-30T06:41:29;101739.19;;;-1.08;96.38
4022;BME280;2025;48.260;16.432;2024-01-30T06:43:56;101735.50;;;-1.00;96.25
4022;BME280;2025;48.260;16.432;2024-01-30T06:46:23;101728.91;;;-1.09;96.43
4022;BME280;2025;48.260;16.432;2024-01-30T06:48:50;101731.94;;;-0.96;96.11
4022;BME280;2025;48.260;16.432;2024-01-30T06:51:17;101734.34;;;-0.90;95.86
4022;BME280;2025;48.260;16.432;2024-01-30T06:53:44;101731.94;;;-0.96;95.71
4022;BME280;2025;48.260;16.432;2024-01-30T06:56:11;101731.69;;;-0.89;95.61
4022;BME280;2025;48.260;16.432;2024-01-30T06:58:40;101739.53;;;-0.90;95.08
4022;BME280;2025;48.260;16.432;2024-01-30T07:01:07;101753.34;;;-0.91;95.05
4022;BME280;2025;48.260;16.432;2024-01-30T07:03:35;101744.47;;;-0.82;94.89
4022;BME280;2025;48.260;16.432;2024-01-30T07:06:02;101745.31;;;-0.82;94.97
4022;BME280;2025;48.260;16.432;2024-01-30T07:08:29;101740.88;;;-0.78;94.44
4022;BME280;2025;48.260;16.432;2024-01-30T07:10:56;101749.34;;;-0.73;94.84
4022;BME280;2025;48.260;16.432;2024-01-30T07:13:23;101746.63;;;-0.69;94.57
4022;BME280;2025;48.260;16.432;2024-01-30T07:15:52;101758.66;;;-0.68;94.34
4022;BME280;2025;48.260;16.432;2024-01-30T07:18:19;101754.09;;;-0.59;94.02
4022;BME280;2025;48.260;16.432;2024-01-30T07:20:46;101754.59;;;-0.48;93.41
4022;BME280;2025;48.260;16.432;2024-01-30T07:23:15;101753.84;;;-0.52;93.71
4022;BME280;2025;48.260;16.432;2024-01-30T07:25:43;101756.50;;;-0.53;93.78
4022;BME280;2025;48.260;16.432;2024-01-30T07:28:10;101765.94;;;-0.52;93.88
4022;BME280;2025;48.260;16.432;2024-01-30T07:30:38;101762.41;;;-0.50;93.61
4022;BME280;2025;48.260;16.432;2024-01-30T07:33:06;101757.53;;;-0.32;93.02
4022;BME280;2025;48.260;16.432;2024-01-30T07:35:34;101762.31;;;-0.20;92.11
4022;BME280;2025;48.260;16.432;2024-01-30T07:38:01;101758.66;;;-0.14;92.11
4022;BME280;2025;48.260;16.432;2024-01-30T07:40:28;101763.63;;;-0.08;91.64
4022;BME280;2025;48.260;16.432;2024-01-30T07:42:55;101757.50;;;-0.06;91.37
4022;BME280;2025;48.260;16.432;2024-01-30T07:45:22;101759.06;;;0.00;91.06
4022;BME280;2025;48.260;16.432;2024-01-30T07:47:51;101753.81;;;0.02;90.75
4022;BME280;2025;48.260;16.432;2024-01-30T07:50:19;101754.00;;;0.20;89.52
4022;BME280;2025;48.260;16.432;2024-01-30T07:52:46;101758.25;;;0.23;89.78
4022;BME280;2025;48.260;16.432;2024-01-30T07:55:50;101760.19;;;0.41;88.16
4022;BME280;2025;48.260;16.432;2024-01-30T07:58:17;101750.69;;;0.42;88.48
4022;BME280;2025;48.260;16.432;2024-01-30T08:00:44;101755.47;;;0.53;87.58
4022;BME280;2025;48.260;16.432;2024-01-30T08:03:11;101758.22;;;0.48;87.71
4022;BME280;2025;48.260;16.432;2024-01-30T08:05:40;101751.69;;;0.61;87.54
4022;BME280;2025;48.260;16.432;2024-01-30T08:08:07;101759.59;;;0.82;86.27
4022;BME280;2025;48.260;16.432;2024-01-30T08:10:34;101758.31;;;0.92;85.55
4022;BME280;2025;48.260;16.432;2024-01-30T08:13:01;101762.91;;;0.86;85.45
4022;BME280;2025;48.260;16.432;2024-01-30T08:15:28;101764.84;;;1.02;84.66
4022;BME280;2025;48.260;16.432;2024-01-30T08:17:55;101769.84;;;1.07;83.74
4022;BME280;2025;48.260;16.432;2024-01-30T08:20:24;101768.97;;;1.08;83.59
4022;BME280;2025;48.260;16.432;2024-01-30T08:22:53;101770.25;;;1.20;83.28
4022;BME280;2025;48.260;16.432;2024-01-30T08:25:20;101772.47;;;1.29;83.49
4022;BME280;2025;48.260;16.432;2024-01-30T08:27:47;101766.19;;;1.35;83.27
4022;BME280;2025;48.260;16.432;2024-01-30T08:30:14;101774.41;;;1.24;82.85
4022;BME280;2025;48.260;16.432;2024-01-30T08:32:41;101764.94;;;1.23;83.50
4022;BME280;2025;48.260;16.432;2024-01-30T08:35:08;101758.22;;;1.39;82.71
4022;BME280;2025;48.260;16.432;2024-01-30T08:37:39;101770.66;;;1.53;81.93
4022;BME280;2025;48.260;16.432;2024-01-30T08:40:08;101770.59;;;1.55;81.99
4022;BME280;2025;48.260;16.432;2024-01-30T08:42:35;101772.03;;;1.62;81.20
4022;BME280;2025;48.260;16.432;2024-01-30T08:45:03;101769.91;;;1.72;81.01
4022;BME280;2025;48.260;16.432;2024-01-30T08:47:30;101771.09;;;1.85;80.30
4022;BME280;2025;48.260;16.432;2024-01-30T08:49:58;101767.97;;;1.77;80.95
4022;BME280;2025;48.260;16.432;2024-01-30T08:52:26;101771.47;;;1.76;80.67
4022;BME280;2025;48.260;16.432;2024-01-30T08:54:53;101765.31;;;1.78;79.92
4022;BME280;2025;48.260;16.432;2024-01-30T08:57:21;101767.34;;;1.92;79.83
4022;BME280;2025;48.260;16.432;2024-01-30T08:59:48;101770.19;;;2.06;79.94
4022;BME280;2025;48.260;16.432;2024-01-30T09:02:15;101763.88;;;2.12;79.36
4022;BME280;2025;48.260;16.432;2024-01-30T09:04:43;101773.97;;;2.20;79.09
4022;BME280;2025;48.260;16.432;2024-01-30T09:07:10;101763.63;;;2.18;78.62
4022;BME280;2025;48.260;16.432;2024-01-30T09:09:39;101764.78;;;2.31;77.01
4022;BME280;2025;48.260;16.432;2024-01-30T09:12:07;101767.63;;;2.46;76.15
4022;BME280;2025;48.260;16.432;2024-01-30T09:14:37;101765.16;;;2.43;76.05
4022;BME280;2025;48.260;16.432;2024-01-30T09:17:04;101762.28;;;2.49;76.77
4022;BME280;2025;48.260;16.432;2024-01-30T09:19:31;101766.06;;;2.42;75.60
4022;BME280;2025;48.260;16.432;2024-01-30T09:21:58;101765.09;;;2.63;75.65
4022;BME280;2025;48.260;16.432;2024-01-30T09:24:25;101772.16;;;2.61;75.29
4022;BME280;2025;48.260;16.432;2024-01-30T09:26:53;101768.16;;;2.73;75.33
4022;BME280;2025;48.260;16.432;2024-01-30T09:29:20;101765.47;;;2.74;74.27
4022;BME280;2025;48.260;16.432;2024-01-30T09:31:49;101767.22;;;2.93;74.45
4022;BME280;2025;48.260;16.432;2024-01-30T09:34:16;101777.06;;;2.86;74.25
4022;BME280;2025;48.260;16.432;2024-01-30T09:36:43;101771.59;;;3.11;74.65
4022;BME280;2025;48.260;16.432;2024-01-30T09:39:10;101771.38;;;2.97;73.94
4022;BME280;2025;48.260;16.432;2024-01-30T09:41:41;101766.97;;;2.99;73.46
4022;BME280;2025;48.260;16.432;2024-01-30T09:44:11;101767.59;;;3.04;73.32
4022;BME280;2025;48.260;16.432;2024-01-30T09:46:39;101766.38;;;3.11;73.45
4022;BME280;2025;48.260;16.432;2024-01-30T09:49:09;101758.91;;;3.23;73.27
4022;BME280;2025;48.260;16.432;2024-01-30T09:51:36;101768.84;;;3.33;72.06
4022;BME280;2025;48.260;16.432;2024-01-30T09:54:04;101752.75;;;3.60;71.39
4022;BME280;2025;48.260;16.432;2024-01-30T09:56:31;101753.66;;;3.42;71.89
4022;BME280;2025;48.260;16.432;2024-01-30T09:58:58;101747.72;;;3.57;70.99
4022;BME280;2025;48.260;16.432;2024-01-30T10:01:25;101749.53;;;3.55;70.43
4022;BME280;2025;48.260;16.432;2024-01-30T10:03:53;101758.38;;;3.70;70.55
4022;BME280;2025;48.260;16.432;2024-01-30T10:06:22;101750.47;;;3.71;69.44
4022;BME280;2025;48.260;16.432;2024-01-30T10:08:51;101755.53;;;3.92;69.73
4022;BME280;2025;48.260;16.432;2024-01-30T10:11:18;101747.78;;;3.90;69.04
4022;BME280;2025;48.260;16.432;2024-01-30T10:13:45;101743.56;;;4.05;69.08
4022;BME280;2025;48.260;16.432;2024-01-30T10:16:14;101751.84;;;4.13;68.85
4022;BME280;2025;48.260;16.432;2024-01-30T10:18:42;101752.91;;;4.27;69.77
4022;BME280;2025;48.260;16.432;2024-01-30T10:21:09;101748.75;;;4.22;68.47
4022;BME280;2025;48.260;16.432;2024-01-30T10:23:38;101745.50;;;4.35;68.16
4022;BME280;2025;48.260;16.432;2024-01-30T10:26:07;101746.91;;;4.25;67.43
4022;BME280;2025;48.260;16.432;2024-01-30T10:28:34;101740.66;;;4.60;66.95
4022;BME280;2025;48.260;16.432;2024-01-30T10:31:01;101743.72;;;4.69;66.98
4022;BME280;2025;48.260;16.432;2024-01-30T10:33:29;101737.19;;;4.44;66.58
4022;BME280;2025;48.260;16.432;2024-01-30T10:36:00;101736.72;;;4.69;66.08
4022;BME280;2025;48.260;16.432;2024-01-30T10:38:29;101725.28;;;4.72;67.01
4022;BME280;2025;48.260;16.432;2024-01-30T10:40:59;101728.06;;;4.69;66.29
4022;BME280;2025;48.260;16.432;2024-01-30T10:43:31;101726.50;;;5.28;65.25
4022;BME280;2025;48.260;16.432;2024-01-30T10:46:06;101722.66;;;6.94;60.90
4022;BME280;2025;48.260;16.432;2024-01-30T10:48:41;101713.09;;;7.48;56.92
4022;BME280;2025;48.260;16.432;2024-01-30T10:51:11;101712.09;;;7.63;57.20
4022;BME280;2025;48.260;16.432;2024-01-30T10:53:39;101699.91;;;8.64;53.28
4022;BME280;2025;48.260;16.432;2024-01-30T10:56:08;101707.41;;;8.45;53.34
4022;BME280;2025;48.260;16.432;2024-01-30T10:58:37;101711.19;;;8.54;52.39
4022;BME280;2025;48.260;16.432;2024-01-30T11:01:05;101704.16;;;7.90;54.27
4022;BME280;2025;48.260;16.432;2024-01-30T11:03:33;101705.44;;;7.97;54.83
4022;BME280;2025;48.260;16.432;2024-01-30T11:06:02;101700.69;;;7.90;54.94
4022;BME280;2025;48.260;16.432;2024-01-30T11:08:32;101697.84;;;8.06;53.75
4022;BME280;2025;48.260;16.432;2024-01-30T11:10:59;101690.81;;;8.19;53.90
4022;BME280;2025;48.260;16.432;2024-01-30T11:13:29;101691.16;;;8.40;53.11
4022;BME280;2025;48.260;16.432;2024-01-30T11:16:00;101690.91;;;8.30;53.57
4022;BME280;2025;48.260;16.432;2024-01-30T11:18:30;101688.47;;;8.90;52.91
4022;BME280;2025;48.260;16.432;2024-01-30T11:20:57;101687.47;;;9.03;52.62
4022;BME280;2025;48.260;16.432;2024-01-30T11:23:26;101684.75;;;9.05;52.56
4022;BME280;2025;48.260;16.432;2024-01-30T11:25:53;101682.66;;;9.57;51.07
4022;BME280;2025;48.260;16.432;2024-01-30T11:28:21;101679.66;;;9.50;50.06
4022;BME280;2025;48.260;16.432;2024-01-30T11:30:50;101673.81;;;9.58;52.36
4022;BME280;2025;48.260;16.432;2024-01-30T11:33:27;101672.31;;;9.78;49.70
4022;BME280;2025;48.260;16.432;2024-01-30T11:35:57;101667.22;;;9.52;49.52
4022;BME280;2025;48.260;16.432;2024-01-30T11:38:26;101666.31;;;9.76;49.35
4022;BME280;2025;48.260;16.432;2024-01-30T11:40:54;101662.53;;;10.02;48.55
4022;BME280;2025;48.260;16.432;2024-01-30T11:43:21;101664.91;;;9.94;48.21
4022;BME280;2025;48.260;16.432;2024-01-30T11:45:50;101662.88;;;10.20;47.72
4022;BME280;2025;48.260;16.432;2024-01-30T11:48:18;101661.66;;;10.02;48.53
4022;BME280;2025;48.260;16.432;2024-01-30T11:50:46;101663.25;;;10.38;47.82
4022;BME280;2025;48.260;16.432;2024-01-30T11:53:13;101661.69;;;10.47;47.66
4022;BME280;2025;48.260;16.432;2024-01-30T11:55:40;101659.50;;;10.07;47.60
4022;BME280;2025;48.260;16.432;2024-01-30T11:58:07;101655.22;;;9.37;49.28
4022;BME280;2025;48.260;16.432;2024-01-30T12:00:34;101663.97;;;9.37;49.33
4022;BME280;2025;48.260;16.432;2024-01-30T12:03:04;101657.84;;;9.95;47.79
4022;BME280;2025;48.260;16.432;2024-01-30T12:05:32;101657.72;;;10.52;46.42
4022;BME280;2025;48.260;16.432;2024-01-30T12:07:59;101654.50;;;10.15;47.18
4022;BME280;2025;48.260;16.432;2024-01-30T12:10:26;101649.41;;;9.44;48.42
4022;BME280;2025;48.260;16.432;2024-01-30T12:12:54;101652.50;;;9.49;49.04
4022;BME280;2025;48.260;16.432;2024-01-30T12:15:22;101645.25;;;9.64;48.24
4022;BME280;2025;48.260;16.432;2024-01-30T12:17:49;101642.69;;;9.40;49.14
4022;BME280;2025;48.260;16.432;2024-01-30T12:20:19;101639.84;;;9.55;49.24
4022;BME280;2025;48.260;16.432;2024-01-30T12:22:48;101636.81;;;9.25;49.46
4022;BME280;2025;48.260;16.432;2024-01-30T12:25:16;101629.72;;;8.91;50.14
4022;BME280;2025;48.260;16.432;2024-01-30T12:27:45;101627.66;;;8.83;51.87
4022;BME280;2025;48.260;16.432;2024-01-30T12:30:13;101626.03;;;8.93;50.16
4022;BME280;2025;48.260;16.432;2024-01-30T12:32:41;101629.22;;;8.61;52.44
4022;BME280;2025;48.260;16.432;2024-01-30T12:35:10;101630.44;;;8.93;50.94
4022;BME280;2025;48.260;16.432;2024-01-30T12:37:39;101632.22;;;8.68;51.01
4022;BME280;2025;48.260;16.432;2024-01-30T12:40:07;101627.25;;;8.52;51.85
4022;BME280;2025;48.260;16.432;2024-01-30T12:42:35;101632.00;;;8.71;51.20
4022;BME280;2025;48.260;16.432;2024-01-30T12:45:02;101632.13;;;8.70;51.28
4022;BME280;2025;48.260;16.432;2024-01-30T12:47:29;101622.16;;;8.62;50.76
4022;BME280;2025;48.260;16.432;2024-01-30T12:49:56;101617.69;;;8.51;51.20
4022;BME280;2025;48.260;16.432;2024-01-30T12:52:23;101619.66;;;8.60;50.19
4022;BME280;2025;48.260;16.432;2024-01-30T12:54:51;101612.31;;;9.01;50.06
4022;BME280;2025;48.260;16.432;2024-01-30T12:57:18;101608.91;;;9.23;49.90
4022;BME280;2025;48.260;16.432;2024-01-30T12:59:46;101609.69;;;8.53;51.27
4022;BME280;2025;48.260;16.432;2024-01-30T13:02:13;101595.84;;;8.51;50.81
4022;BME280;2025;48.260;16.432;2024-01-30T13:04:42;101600.97;;;8.76;49.90
4022;BME280;2025;48.260;16.432;2024-01-30T13:07:09;101605.06;;;8.80;49.75
4022;BME280;2025;48.260;16.432;2024-01-30T13:09:36;101605.41;;;8.76;49.73